createdAt,value
2017-11-13T00:00:33.087Z,989.69
2017-11-13T00:01:33.164Z,989.68
2017-11-13T00:02:33.142Z,989.66
2017-11-13T00:03:33.170Z,989.70
2017-11-13T00:04:33.200Z,989.72
2017-11-13T00:05:33.230Z,989.70
2017-11-13T00:06:33.261Z,989.75
2017-11-13T00:07:33.284Z,989.74
2017-11-13T00:08:33.312Z,989.76
2017-11-13T00:09:33.338Z,989.78
2017-11-13T00:10:33.367Z,989.82
2017-11-13T00:11:33.396Z,989.84
2017-11-13T00:12:33.423Z,989.88
2017-11-13T00:13:33.452Z,989.89
2017-11-13T00:14:33.480Z,989.94
2017-11-13T00:15:33.509Z,989.89
2017-11-13T00:16:33.537Z,989.91
2017-11-13T00:17:33.565Z,989.90
2017-11-13T00:18:33.594Z,989.90
2017-11-13T00:19:33.622Z,989.89
2017-11-13T00:20:33.649Z,989.96
2017-11-13T00:21:33.676Z,989.96
2017-11-13T00:22:33.705Z,989.95
2017-11-13T00:23:33.733Z,989.95
2017-11-13T00:24:33.762Z,989.94
2017-11-13T00:25:33.790Z,989.98
2017-11-13T00:26:33.817Z,989.91
2017-11-13T00:27:33.860Z,989.97
2017-11-13T00:28:33.883Z,989.95
2017-11-13T00:29:33.903Z,989.94
2017-11-13T00:30:33.935Z,989.91
2017-11-13T00:31:33.960Z,989.94
2017-11-13T00:32:33.988Z,990.02
2017-11-13T00:33:34.015Z,990.00
2017-11-13T00:34:34.043Z,990.07
2017-11-13T00:35:34.071Z,990.08
2017-11-13T00:36:34.099Z,990.08
2017-11-13T00:37:34.126Z,990.13
2017-11-13T00:38:34.156Z,990.14
2017-11-13T00:39:34.183Z,990.20
2017-11-13T00:40:34.211Z,990.22
2017-11-13T00:41:34.239Z,990.17
2017-11-13T00:42:34.266Z,990.17
2017-11-13T00:43:34.295Z,990.22
2017-11-13T00:44:34.322Z,990.20
2017-11-13T00:45:34.350Z,990.21
2017-11-13T00:46:34.377Z,990.27
2017-11-13T00:47:34.406Z,990.25
2017-11-13T00:48:34.435Z,990.26
2017-11-13T00:49:34.462Z,990.25
2017-11-13T00:50:34.490Z,990.32
2017-11-13T00:51:34.519Z,990.34
2017-11-13T00:52:34.547Z,990.35
2017-11-13T00:53:34.573Z,990.32
2017-11-13T00:54:34.603Z,990.36
2017-11-13T00:55:34.631Z,990.42
2017-11-13T00:56:34.658Z,990.39
2017-11-13T00:57:34.685Z,990.46
2017-11-13T00:58:34.713Z,990.44
2017-11-13T00:59:34.741Z,990.44
2017-11-13T01:00:34.769Z,990.43
2017-11-13T01:01:34.796Z,990.47
2017-11-13T01:02:34.830Z,990.44
2017-11-13T01:03:34.854Z,990.45
2017-11-13T01:04:34.885Z,990.44
2017-11-13T01:05:34.908Z,990.44
2017-11-13T01:06:34.937Z,990.40
2017-11-13T01:07:34.966Z,990.35
2017-11-13T01:08:34.994Z,990.39
2017-11-13T01:09:35.021Z,990.37
2017-11-13T01:10:35.049Z,990.39
2017-11-13T01:11:35.077Z,990.36
2017-11-13T01:12:35.106Z,990.38
2017-11-13T01:13:35.132Z,990.38
2017-11-13T01:14:35.160Z,990.41
2017-11-13T01:15:35.190Z,990.39
2017-11-13T01:16:35.218Z,990.42
2017-11-13T01:17:35.243Z,990.40
2017-11-13T01:18:35.273Z,990.38
2017-11-13T01:19:35.356Z,990.40
2017-11-13T01:20:35.330Z,990.46
2017-11-13T01:21:35.358Z,990.46
2017-11-13T01:22:35.384Z,990.48
2017-11-13T01:23:35.414Z,990.48
2017-11-13T01:24:35.443Z,990.46
2017-11-13T01:25:35.468Z,990.51
2017-11-13T01:26:35.497Z,990.54
2017-11-13T01:27:35.533Z,990.55
2017-11-13T01:28:35.554Z,990.61
2017-11-13T01:29:35.632Z,990.61
2017-11-13T01:30:35.610Z,990.62
2017-11-13T01:31:35.638Z,990.61
2017-11-13T01:32:35.672Z,990.58
2017-11-13T01:33:35.693Z,990.62
2017-11-13T01:34:35.721Z,990.59
2017-11-13T01:35:35.800Z,990.58
2017-11-13T01:36:35.778Z,990.58
2017-11-13T01:37:35.805Z,990.56
2017-11-13T01:38:35.834Z,990.64
2017-11-13T01:39:35.861Z,990.66
2017-11-13T01:40:35.910Z,990.60
2017-11-13T01:41:35.918Z,990.68
2017-11-13T01:42:35.946Z,990.64
2017-11-13T01:43:35.975Z,990.68
2017-11-13T01:44:36.003Z,990.73
2017-11-13T01:45:36.031Z,990.77
2017-11-13T01:46:36.057Z,990.75
2017-11-13T01:47:36.087Z,990.81
2017-11-13T01:48:36.116Z,990.85
2017-11-13T01:49:36.150Z,990.85
2017-11-13T01:50:36.170Z,990.86
2017-11-13T01:51:36.199Z,990.90
2017-11-13T01:52:36.226Z,990.90
2017-11-13T01:53:36.253Z,990.91
2017-11-13T01:54:36.282Z,990.96
2017-11-13T01:55:36.361Z,991.00
2017-11-13T01:56:36.339Z,990.98
2017-11-13T01:57:36.366Z,990.98
2017-11-13T01:58:36.394Z,990.99
2017-11-13T01:59:36.423Z,991.03
2017-11-13T02:00:36.451Z,991.02
2017-11-13T02:01:36.479Z,991.04
2017-11-13T02:02:36.507Z,991.04
2017-11-13T02:03:36.535Z,991.06
2017-11-13T02:04:36.564Z,991.12
2017-11-13T02:05:36.640Z,991.10
2017-11-13T02:06:36.620Z,991.12
2017-11-13T02:07:36.653Z,991.11
2017-11-13T02:08:36.675Z,991.11
2017-11-13T02:09:36.703Z,991.07
2017-11-13T02:10:36.731Z,991.01
2017-11-13T02:11:36.757Z,991.09
2017-11-13T02:12:36.787Z,991.13
2017-11-13T02:13:36.814Z,991.09
2017-11-13T02:14:36.842Z,991.08
2017-11-13T02:15:36.893Z,991.06
2017-11-13T02:16:36.900Z,991.05
2017-11-13T02:17:36.928Z,991.04
2017-11-13T02:18:36.956Z,991.01
2017-11-13T02:19:36.983Z,991.05
2017-11-13T02:20:37.012Z,991.02
2017-11-13T02:21:37.049Z,991.04
2017-11-13T02:22:37.068Z,990.96
2017-11-13T02:23:37.097Z,990.99
2017-11-13T02:24:37.125Z,990.96
2017-11-13T02:25:37.152Z,990.96
2017-11-13T02:26:37.180Z,990.98
2017-11-13T02:27:37.209Z,990.98
2017-11-13T02:28:37.235Z,990.97
2017-11-13T02:29:37.264Z,990.97
2017-11-13T02:30:37.292Z,990.94
2017-11-13T02:31:37.322Z,990.97
2017-11-13T02:32:37.349Z,990.99
2017-11-13T02:33:37.377Z,990.99
2017-11-13T02:34:37.403Z,990.99
2017-11-13T02:35:37.432Z,990.98
2017-11-13T02:36:37.510Z,991.00
2017-11-13T02:37:37.487Z,991.00
2017-11-13T02:38:37.518Z,991.01
2017-11-13T02:39:37.543Z,991.00
2017-11-13T02:40:37.572Z,991.01
2017-11-13T02:41:37.598Z,991.04
2017-11-13T02:42:37.625Z,991.08
2017-11-13T02:43:37.657Z,991.12
2017-11-13T02:44:37.681Z,991.14
2017-11-13T02:45:37.709Z,991.14
2017-11-13T02:46:37.737Z,991.22
2017-11-13T02:47:37.763Z,991.18
2017-11-13T02:48:37.791Z,991.23
2017-11-13T02:49:37.818Z,991.27
2017-11-13T02:50:37.847Z,991.26
2017-11-13T02:51:37.875Z,991.33
2017-11-13T02:52:37.902Z,991.36
2017-11-13T02:53:37.929Z,991.33
2017-11-13T02:54:37.958Z,991.37
2017-11-13T02:55:37.985Z,991.34
2017-11-13T02:56:38.013Z,991.41
2017-11-13T02:57:38.039Z,991.47
2017-11-13T02:58:38.068Z,991.50
2017-11-13T02:59:38.095Z,991.50
2017-11-13T03:00:38.123Z,991.54
2017-11-13T03:01:38.149Z,991.52
2017-11-13T03:02:38.177Z,991.57
2017-11-13T03:03:38.205Z,991.61
2017-11-13T03:04:38.232Z,991.68
2017-11-13T03:05:38.259Z,991.67
2017-11-13T03:06:38.288Z,991.65
2017-11-13T03:07:38.315Z,991.73
2017-11-13T03:08:38.343Z,991.68
2017-11-13T03:09:38.370Z,991.73
2017-11-13T03:10:38.396Z,991.76
2017-11-13T03:11:38.431Z,991.71
2017-11-13T03:12:38.462Z,991.71
2017-11-13T03:13:38.480Z,991.77
2017-11-13T03:14:38.514Z,991.78
2017-11-13T03:15:38.536Z,991.80
2017-11-13T03:16:38.564Z,991.86
2017-11-13T03:17:38.641Z,991.83
2017-11-13T03:18:38.619Z,991.85
2017-11-13T03:19:38.647Z,991.85
2017-11-13T03:20:38.676Z,991.80
2017-11-13T03:21:38.702Z,991.84
2017-11-13T03:22:38.737Z,991.81
2017-11-13T03:23:38.757Z,991.83
2017-11-13T03:24:38.786Z,991.86
2017-11-13T03:25:38.814Z,991.85
2017-11-13T03:26:38.840Z,991.88
2017-11-13T03:27:38.867Z,991.89
2017-11-13T03:28:38.897Z,991.87
2017-11-13T03:29:38.922Z,991.89
2017-11-13T03:30:38.954Z,991.89
2017-11-13T03:31:38.980Z,991.89
2017-11-13T03:32:39.015Z,991.94
2017-11-13T03:33:39.035Z,991.94
2017-11-13T03:34:39.062Z,991.98
2017-11-13T03:35:39.089Z,992.01
2017-11-13T03:36:39.117Z,991.97
2017-11-13T03:37:39.145Z,992.05
2017-11-13T03:38:39.221Z,992.10
2017-11-13T03:39:39.201Z,992.09
2017-11-13T03:40:39.229Z,992.12
2017-11-13T03:41:39.256Z,992.16
2017-11-13T03:42:39.287Z,992.15
2017-11-13T03:43:39.313Z,992.14
2017-11-13T03:44:39.360Z,992.18
2017-11-13T03:45:39.368Z,992.21
2017-11-13T03:46:39.396Z,992.24
2017-11-13T03:47:39.424Z,992.21
2017-11-13T03:48:39.451Z,992.29
2017-11-13T03:49:39.480Z,992.25
2017-11-13T03:50:39.508Z,992.28
2017-11-13T03:51:39.535Z,992.28
2017-11-13T03:52:39.563Z,992.29
2017-11-13T03:53:39.591Z,992.36
2017-11-13T03:54:39.619Z,992.35
2017-11-13T03:55:39.646Z,992.37
2017-11-13T03:56:39.678Z,992.35
2017-11-13T03:57:39.701Z,992.37
2017-11-13T03:58:39.729Z,992.32
2017-11-13T03:59:39.760Z,992.32
2017-11-13T04:00:39.786Z,992.31
2017-11-13T04:01:39.814Z,992.32
2017-11-13T04:02:39.841Z,992.34
2017-11-13T04:03:39.871Z,992.37
2017-11-13T04:04:39.899Z,992.41
2017-11-13T04:05:39.927Z,992.38
2017-11-13T04:06:39.954Z,992.43
2017-11-13T04:07:39.982Z,992.37
2017-11-13T04:08:40.010Z,992.42
2017-11-13T04:09:40.088Z,992.49
2017-11-13T04:10:40.069Z,992.43
2017-11-13T04:11:40.105Z,992.46
2017-11-13T04:12:40.122Z,992.46
2017-11-13T04:13:40.149Z,992.52
2017-11-13T04:14:40.176Z,992.53
2017-11-13T04:15:40.207Z,992.53
2017-11-13T04:16:40.233Z,992.50
2017-11-13T04:17:40.260Z,992.55
2017-11-13T04:18:40.288Z,992.57
2017-11-13T04:19:40.318Z,992.57
2017-11-13T04:20:40.345Z,992.57
2017-11-13T04:21:40.373Z,992.61
2017-11-13T04:22:40.401Z,992.63
2017-11-13T04:23:40.429Z,992.58
2017-11-13T04:24:40.458Z,992.60
2017-11-13T04:25:40.484Z,992.62
2017-11-13T04:26:40.514Z,992.62
2017-11-13T04:27:40.542Z,992.65
2017-11-13T04:28:40.571Z,992.59
2017-11-13T04:29:40.597Z,992.63
2017-11-13T04:30:40.675Z,992.65
2017-11-13T04:31:40.653Z,992.62
2017-11-13T04:32:40.682Z,992.57
2017-11-13T04:33:40.715Z,992.57
2017-11-13T04:34:40.738Z,992.59
2017-11-13T04:35:40.765Z,992.56
2017-11-13T04:36:40.794Z,992.62
2017-11-13T04:37:40.821Z,992.61
2017-11-13T04:38:40.848Z,992.61
2017-11-13T04:39:40.878Z,992.63
2017-11-13T04:40:40.906Z,992.62
2017-11-13T04:41:40.932Z,992.61
2017-11-13T04:42:40.960Z,992.65
2017-11-13T04:43:40.991Z,992.67
2017-11-13T04:44:41.018Z,992.70
2017-11-13T04:45:41.045Z,992.67
2017-11-13T04:46:41.077Z,992.71
2017-11-13T04:47:41.106Z,992.78
2017-11-13T04:48:41.131Z,992.77
2017-11-13T04:49:41.156Z,992.75
2017-11-13T04:50:41.185Z,992.85
2017-11-13T04:51:41.213Z,992.82
2017-11-13T04:52:41.247Z,992.76
2017-11-13T04:53:41.269Z,992.80
2017-11-13T04:54:41.298Z,992.81
2017-11-13T04:55:41.325Z,992.79
2017-11-13T04:56:41.353Z,992.83
2017-11-13T04:57:41.382Z,992.80
2017-11-13T04:58:41.412Z,992.78
2017-11-13T04:59:41.439Z,992.77
2017-11-13T05:00:41.467Z,992.78
2017-11-13T05:01:41.495Z,992.76
2017-11-13T05:02:41.523Z,992.73
2017-11-13T05:03:41.551Z,992.75
2017-11-13T05:04:41.579Z,992.78
2017-11-13T05:05:41.607Z,992.75
2017-11-13T05:06:41.634Z,992.80
2017-11-13T05:07:41.663Z,992.81
2017-11-13T05:08:41.692Z,992.80
2017-11-13T05:09:41.718Z,992.82
2017-11-13T05:10:41.746Z,992.87
2017-11-13T05:11:41.775Z,992.88
2017-11-13T05:12:41.802Z,992.88
2017-11-13T05:13:41.831Z,992.90
2017-11-13T05:14:41.859Z,992.89
2017-11-13T05:15:41.886Z,992.84
2017-11-13T05:16:41.916Z,992.84
2017-11-13T05:17:41.942Z,992.90
2017-11-13T05:18:41.972Z,992.88
2017-11-13T05:19:42.000Z,992.84
2017-11-13T05:20:42.029Z,992.87
2017-11-13T05:21:42.057Z,992.86
2017-11-13T05:22:42.084Z,992.91
2017-11-13T05:23:42.111Z,992.93
2017-11-13T05:24:42.140Z,992.96
2017-11-13T05:25:42.167Z,992.94
2017-11-13T05:26:42.196Z,993.06
2017-11-13T05:27:42.223Z,993.10
2017-11-13T05:28:42.252Z,993.10
2017-11-13T05:29:42.280Z,993.13
2017-11-13T05:30:42.306Z,993.18
2017-11-13T05:31:42.336Z,993.16
2017-11-13T05:32:42.363Z,993.17
2017-11-13T05:33:42.394Z,993.22
2017-11-13T05:34:42.419Z,993.24
2017-11-13T05:35:42.449Z,993.25
2017-11-13T05:36:42.476Z,993.29
2017-11-13T05:37:42.553Z,993.30
2017-11-13T05:38:42.536Z,993.30
2017-11-13T05:39:42.560Z,993.30
2017-11-13T05:40:42.587Z,993.33
2017-11-13T05:41:42.616Z,993.39
2017-11-13T05:42:42.643Z,993.35
2017-11-13T05:43:42.675Z,993.40
2017-11-13T05:44:42.700Z,993.44
2017-11-13T05:45:42.726Z,993.43
2017-11-13T05:46:42.754Z,993.47
2017-11-13T05:47:42.832Z,993.50
2017-11-13T05:48:42.810Z,993.46
2017-11-13T05:49:42.837Z,993.53
2017-11-13T05:50:42.866Z,993.57
2017-11-13T05:51:42.894Z,993.59
2017-11-13T05:52:42.921Z,993.59
2017-11-13T05:53:42.949Z,993.63
2017-11-13T05:54:42.981Z,993.61
2017-11-13T05:55:43.006Z,993.65
2017-11-13T05:56:43.035Z,993.64
2017-11-13T05:57:43.061Z,993.62
2017-11-13T05:58:43.090Z,993.65
2017-11-13T05:59:43.125Z,993.67
2017-11-13T06:00:43.146Z,993.66
2017-11-13T06:01:43.177Z,993.68
2017-11-13T06:02:43.202Z,993.69
2017-11-13T06:03:43.230Z,993.72
2017-11-13T06:04:43.257Z,993.73
2017-11-13T06:05:43.284Z,993.79
2017-11-13T06:06:43.313Z,993.80
2017-11-13T06:07:43.344Z,993.77
2017-11-13T06:08:43.369Z,993.78
2017-11-13T06:09:43.398Z,993.76
2017-11-13T06:10:43.428Z,993.75
2017-11-13T06:11:43.454Z,993.82
2017-11-13T06:12:43.482Z,993.82
2017-11-13T06:13:43.560Z,993.86
2017-11-13T06:14:43.538Z,993.81
2017-11-13T06:15:43.568Z,993.82
2017-11-13T06:16:43.596Z,993.88
2017-11-13T06:17:43.627Z,993.91
2017-11-13T06:18:43.651Z,993.96
2017-11-13T06:19:43.679Z,993.98
2017-11-13T06:20:43.708Z,993.97
2017-11-13T06:21:43.735Z,993.98
2017-11-13T06:22:43.763Z,993.95
2017-11-13T06:23:43.791Z,993.99
2017-11-13T06:24:43.819Z,993.98
2017-11-13T06:25:43.847Z,993.96
2017-11-13T06:26:43.874Z,994.00
2017-11-13T06:27:43.904Z,994.01
2017-11-13T06:28:43.931Z,993.96
2017-11-13T06:29:43.959Z,994.00
2017-11-13T06:30:43.987Z,994.01
2017-11-13T06:31:44.016Z,994.01
2017-11-13T06:32:44.046Z,994.03
2017-11-13T06:33:44.074Z,994.04
2017-11-13T06:34:44.101Z,994.05
2017-11-13T06:35:44.130Z,994.04
2017-11-13T06:36:44.157Z,994.05
2017-11-13T06:37:44.184Z,994.09
2017-11-13T06:38:44.213Z,994.11
2017-11-13T06:39:44.242Z,994.15
2017-11-13T06:40:44.277Z,994.21
2017-11-13T06:41:44.297Z,994.24
2017-11-13T06:42:44.324Z,994.30
2017-11-13T06:43:44.353Z,994.28
2017-11-13T06:44:44.382Z,994.30
2017-11-13T06:45:44.409Z,994.31
2017-11-13T06:46:44.438Z,994.31
2017-11-13T06:47:44.468Z,994.33
2017-11-13T06:48:44.500Z,994.37
2017-11-13T06:49:44.522Z,994.42
2017-11-13T06:50:44.551Z,994.41
2017-11-13T06:51:44.579Z,994.45
2017-11-13T06:52:44.607Z,994.43
2017-11-13T06:53:44.635Z,994.47
2017-11-13T06:54:44.663Z,994.49
2017-11-13T06:55:44.740Z,994.48
2017-11-13T06:56:44.718Z,994.50
2017-11-13T06:57:44.747Z,994.53
2017-11-13T06:58:44.791Z,994.57
2017-11-13T06:59:44.802Z,994.54
2017-11-13T07:00:44.832Z,994.54
2017-11-13T07:01:44.858Z,994.52
2017-11-13T07:02:44.888Z,994.56
2017-11-13T07:03:44.922Z,994.57
2017-11-13T07:04:44.945Z,994.61
2017-11-13T07:05:44.972Z,994.64
2017-11-13T07:06:45.004Z,994.69
2017-11-13T07:07:45.028Z,994.67
2017-11-13T07:08:45.057Z,994.73
2017-11-13T07:09:45.085Z,994.73
2017-11-13T07:10:45.112Z,994.76
2017-11-13T07:11:45.146Z,994.78
2017-11-13T07:12:45.168Z,994.80
2017-11-13T07:13:45.197Z,994.85
2017-11-13T07:14:45.225Z,994.87
2017-11-13T07:15:45.434Z,994.84
2017-11-13T07:16:45.431Z,994.93
2017-11-13T07:17:45.310Z,994.91
2017-11-13T07:18:45.339Z,994.95
2017-11-13T07:19:45.364Z,994.96
2017-11-13T07:20:45.393Z,994.99
2017-11-13T07:21:45.422Z,995.03
2017-11-13T07:22:45.450Z,994.98
2017-11-13T07:23:45.479Z,995.09
2017-11-13T07:24:45.506Z,995.03
2017-11-13T07:25:45.534Z,995.07
2017-11-13T07:26:45.562Z,995.14
2017-11-13T07:27:45.590Z,995.17
2017-11-13T07:28:45.620Z,995.16
2017-11-13T07:29:45.646Z,995.20
2017-11-13T07:30:45.675Z,995.21
2017-11-13T07:31:45.702Z,995.23
2017-11-13T07:32:45.732Z,995.22
2017-11-13T07:33:45.758Z,995.24
2017-11-13T07:34:45.788Z,995.25
2017-11-13T07:35:45.816Z,995.28
2017-11-13T07:36:45.845Z,995.29
2017-11-13T07:37:45.873Z,995.36
2017-11-13T07:38:45.901Z,995.33
2017-11-13T07:39:45.931Z,995.34
2017-11-13T07:40:45.970Z,995.40
2017-11-13T07:41:45.991Z,995.33
2017-11-13T07:42:46.015Z,995.39
2017-11-13T07:43:46.044Z,995.42
2017-11-13T07:44:46.080Z,995.39
2017-11-13T07:45:46.101Z,995.34
2017-11-13T07:46:46.128Z,995.33
2017-11-13T07:47:46.160Z,995.33
2017-11-13T07:48:46.188Z,995.33
2017-11-13T07:49:46.215Z,995.37
2017-11-13T07:50:46.245Z,995.34
2017-11-13T07:51:46.278Z,995.38
2017-11-13T07:52:46.301Z,995.36
2017-11-13T07:53:46.328Z,995.37
2017-11-13T07:54:46.358Z,995.37
2017-11-13T07:55:46.386Z,995.37
2017-11-13T07:56:46.416Z,995.37
2017-11-13T07:57:46.442Z,995.40
2017-11-13T07:58:46.494Z,995.38
2017-11-13T07:59:46.503Z,995.45
2017-11-13T08:00:46.534Z,995.36
2017-11-13T08:01:46.559Z,995.40
2017-11-13T08:02:46.606Z,995.48
2017-11-13T08:03:46.616Z,995.51
2017-11-13T08:04:46.645Z,995.48
2017-11-13T08:05:46.673Z,995.54
2017-11-13T08:06:46.703Z,995.54
2017-11-13T08:07:46.733Z,995.54
2017-11-13T08:08:46.760Z,995.61
2017-11-13T08:09:46.789Z,995.57
2017-11-13T08:10:46.817Z,995.59
2017-11-13T08:11:46.847Z,995.66
2017-11-13T08:12:46.879Z,995.69
2017-11-13T08:13:46.904Z,995.67
2017-11-13T08:14:46.942Z,995.70
2017-11-13T08:15:46.964Z,995.67
2017-11-13T08:16:46.992Z,995.72
2017-11-13T08:17:47.071Z,995.72
2017-11-13T08:18:47.050Z,995.84
2017-11-13T08:19:47.080Z,995.75
2017-11-13T08:20:47.110Z,995.73
2017-11-13T08:21:47.140Z,995.72
2017-11-13T08:22:47.170Z,995.79
2017-11-13T08:23:47.197Z,995.79
2017-11-13T08:24:47.227Z,995.78
2017-11-13T08:25:47.254Z,995.82
2017-11-13T08:26:47.284Z,995.78
2017-11-13T08:27:47.313Z,995.77
2017-11-13T08:28:47.343Z,995.83
2017-11-13T08:29:47.370Z,995.80
2017-11-13T08:30:47.405Z,995.80
2017-11-13T08:31:47.430Z,995.84
2017-11-13T08:32:47.460Z,995.86
2017-11-13T08:33:47.489Z,995.85
2017-11-13T08:34:47.519Z,995.89
2017-11-13T08:35:47.548Z,995.84
2017-11-13T08:36:47.602Z,995.87
2017-11-13T08:37:47.607Z,995.90
2017-11-13T08:38:47.637Z,995.87
2017-11-13T08:39:47.666Z,995.88
2017-11-13T08:40:47.697Z,995.84
2017-11-13T08:41:47.726Z,995.93
2017-11-13T08:42:47.763Z,995.96
2017-11-13T08:43:47.786Z,995.91
2017-11-13T08:44:47.814Z,995.96
2017-11-13T08:45:47.849Z,995.99
2017-11-13T08:46:47.874Z,995.97
2017-11-13T08:47:47.904Z,995.94
2017-11-13T08:48:47.985Z,995.97
2017-11-13T08:49:47.964Z,995.98
2017-11-13T08:50:47.994Z,996.00
2017-11-13T08:51:48.024Z,995.98
2017-11-13T08:52:48.055Z,995.96
2017-11-13T08:53:48.084Z,995.94
2017-11-13T08:54:48.115Z,995.90
2017-11-13T08:55:48.145Z,995.88
2017-11-13T08:56:48.175Z,995.93
2017-11-13T08:57:48.204Z,995.90
2017-11-13T08:58:48.235Z,995.90
2017-11-13T08:59:48.266Z,995.90
2017-11-13T09:00:48.296Z,995.87
2017-11-13T09:01:48.326Z,995.95
2017-11-13T09:02:48.358Z,995.94
2017-11-13T09:03:48.387Z,995.91
2017-11-13T09:04:48.419Z,995.98
2017-11-13T09:05:48.448Z,995.98
2017-11-13T09:06:48.476Z,995.97
2017-11-13T09:07:48.506Z,995.95
2017-11-13T09:08:48.537Z,995.90
2017-11-13T09:09:48.570Z,995.92
2017-11-13T09:10:48.598Z,995.99
2017-11-13T09:11:48.627Z,996.00
2017-11-13T09:12:48.657Z,996.00
2017-11-13T09:13:48.684Z,996.00
2017-11-13T09:14:48.715Z,995.98
2017-11-13T09:15:48.745Z,995.99
2017-11-13T09:16:48.776Z,996.03
2017-11-13T09:17:48.804Z,995.99
2017-11-13T09:18:48.834Z,996.00
2017-11-13T09:19:48.864Z,995.97
2017-11-13T09:20:48.894Z,995.98
2017-11-13T09:21:48.922Z,996.01
2017-11-13T09:22:48.952Z,996.00
2017-11-13T09:23:48.981Z,995.99
2017-11-13T09:24:49.012Z,996.00
2017-11-13T09:25:49.043Z,996.00
2017-11-13T09:26:49.070Z,996.05
2017-11-13T09:27:49.098Z,996.10
2017-11-13T09:28:49.129Z,996.16
2017-11-13T09:29:49.157Z,996.21
2017-11-13T09:30:49.187Z,996.24
2017-11-13T09:31:49.218Z,996.22
2017-11-13T09:32:49.247Z,996.22
2017-11-13T09:33:49.276Z,996.23
2017-11-13T09:34:49.354Z,996.25
2017-11-13T09:35:49.333Z,996.30
2017-11-13T09:36:49.371Z,996.31
2017-11-13T09:37:49.391Z,996.25
2017-11-13T09:38:49.425Z,996.25
2017-11-13T09:39:49.451Z,996.25
2017-11-13T09:40:49.479Z,996.34
2017-11-13T09:41:49.509Z,996.33
2017-11-13T09:42:49.537Z,996.34
2017-11-13T09:43:49.568Z,996.42
2017-11-13T09:44:49.595Z,996.40
2017-11-13T09:45:49.624Z,996.40
2017-11-13T09:46:49.652Z,996.46
2017-11-13T09:47:49.682Z,996.49
2017-11-13T09:48:49.711Z,996.52
2017-11-13T09:49:49.740Z,996.57
2017-11-13T09:50:49.771Z,996.58
2017-11-13T09:51:49.798Z,996.54
2017-11-13T09:52:49.826Z,996.56
2017-11-13T09:53:49.854Z,996.58
2017-11-13T09:54:49.883Z,996.61
2017-11-13T09:55:49.912Z,996.59
2017-11-13T09:56:49.940Z,996.61
2017-11-13T09:57:49.969Z,996.63
2017-11-13T09:58:50.000Z,996.64
2017-11-13T09:59:50.028Z,996.68
2017-11-13T10:00:50.057Z,996.67
2017-11-13T10:01:50.085Z,996.70
2017-11-13T10:02:50.113Z,996.72
2017-11-13T10:03:50.143Z,996.69
2017-11-13T10:04:50.172Z,996.66
2017-11-13T10:05:50.200Z,996.61
2017-11-13T10:06:50.233Z,996.61
2017-11-13T10:07:50.258Z,996.56
2017-11-13T10:08:50.288Z,996.58
2017-11-13T10:09:50.316Z,996.64
2017-11-13T10:10:50.346Z,996.66
2017-11-13T10:11:50.380Z,996.64
2017-11-13T10:12:50.404Z,996.63
2017-11-13T10:13:50.431Z,996.64
2017-11-13T10:14:50.461Z,996.71
2017-11-13T10:15:50.490Z,996.73
2017-11-13T10:16:50.519Z,996.75
2017-11-13T10:17:50.548Z,996.75
2017-11-13T10:18:50.577Z,996.72
2017-11-13T10:19:50.607Z,996.74
2017-11-13T10:20:50.635Z,996.77
2017-11-13T10:21:50.681Z,996.80
2017-11-13T10:22:50.692Z,996.84
2017-11-13T10:23:50.722Z,996.84
2017-11-13T10:24:50.752Z,996.85
2017-11-13T10:25:50.780Z,996.85
2017-11-13T10:26:50.810Z,996.85
2017-11-13T10:27:50.840Z,996.83
2017-11-13T10:28:50.868Z,996.83
2017-11-13T10:29:50.897Z,996.74
2017-11-13T10:30:50.926Z,996.77
2017-11-13T10:31:51.055Z,996.86
2017-11-13T10:32:50.983Z,996.87
2017-11-13T10:33:51.011Z,996.87
2017-11-13T10:34:51.042Z,996.84
2017-11-13T10:35:51.072Z,996.89
2017-11-13T10:36:51.101Z,996.90
2017-11-13T10:37:51.128Z,996.93
2017-11-13T10:38:51.157Z,996.93
2017-11-13T10:39:51.186Z,996.95
2017-11-13T10:40:51.218Z,996.93
2017-11-13T10:41:51.245Z,996.96
2017-11-13T10:42:51.273Z,996.99
2017-11-13T10:43:51.303Z,996.99
2017-11-13T10:44:51.333Z,996.98
2017-11-13T10:45:51.361Z,996.99
2017-11-13T10:46:51.390Z,996.96
2017-11-13T10:47:51.418Z,997.01
2017-11-13T10:48:51.449Z,996.97
2017-11-13T10:49:51.478Z,996.99
2017-11-13T10:50:51.507Z,996.99
2017-11-13T10:51:51.536Z,996.93
2017-11-13T10:52:51.567Z,996.93
2017-11-13T10:53:51.595Z,996.96
2017-11-13T10:54:51.625Z,996.96
2017-11-13T10:55:51.655Z,996.98
2017-11-13T10:56:51.684Z,996.99
2017-11-13T10:57:51.713Z,997.01
2017-11-13T10:58:51.743Z,997.04
2017-11-13T10:59:51.774Z,997.05
2017-11-13T11:00:51.801Z,996.98
2017-11-13T11:01:51.830Z,997.04
2017-11-13T11:02:51.859Z,997.05
2017-11-13T11:03:51.890Z,997.04
2017-11-13T11:04:51.920Z,997.03
2017-11-13T11:05:51.948Z,997.06
2017-11-13T11:06:51.978Z,997.04
2017-11-13T11:07:52.008Z,997.00
2017-11-13T11:08:52.038Z,996.99
2017-11-13T11:09:52.068Z,996.96
2017-11-13T11:10:52.096Z,996.97
2017-11-13T11:11:52.125Z,996.90
2017-11-13T11:12:52.154Z,996.91
2017-11-13T11:13:52.184Z,996.95
2017-11-13T11:14:52.215Z,996.96
2017-11-13T11:15:52.243Z,996.94
2017-11-13T11:16:52.274Z,996.91
2017-11-13T11:17:52.303Z,996.92
2017-11-13T11:18:52.332Z,996.93
2017-11-13T11:19:52.362Z,996.95
2017-11-13T11:20:52.392Z,996.97
2017-11-13T11:21:52.426Z,996.96
2017-11-13T11:22:52.449Z,997.02
2017-11-13T11:23:52.480Z,997.02
2017-11-13T11:24:52.510Z,996.99
2017-11-13T11:25:52.539Z,996.99
2017-11-13T11:26:52.569Z,997.03
2017-11-13T11:27:52.599Z,997.03
2017-11-13T11:28:52.629Z,997.04
2017-11-13T11:29:52.659Z,997.02
2017-11-13T11:30:52.689Z,997.04
2017-11-13T11:31:52.719Z,997.01
2017-11-13T11:32:52.748Z,997.04
2017-11-13T11:33:52.778Z,997.08
2017-11-13T11:34:52.808Z,997.11
2017-11-13T11:35:52.838Z,997.11
2017-11-13T11:36:52.868Z,997.09
2017-11-13T11:37:52.896Z,997.10
2017-11-13T11:38:52.928Z,997.09
2017-11-13T11:39:52.956Z,997.09
2017-11-13T11:40:52.986Z,997.08
2017-11-13T11:41:53.016Z,997.15
2017-11-13T11:42:53.046Z,997.13
2017-11-13T11:43:53.077Z,997.14
2017-11-13T11:44:53.105Z,997.18
2017-11-13T11:45:53.135Z,997.18
2017-11-13T11:46:53.165Z,997.20
2017-11-13T11:47:53.194Z,997.23
2017-11-13T11:48:53.225Z,997.19
2017-11-13T11:49:53.254Z,997.23
2017-11-13T11:50:53.285Z,997.15
2017-11-13T11:51:53.315Z,997.15
2017-11-13T11:52:53.344Z,997.18
2017-11-13T11:53:53.373Z,997.19
2017-11-13T11:54:53.402Z,997.21
2017-11-13T11:55:53.432Z,997.23
2017-11-13T11:56:53.465Z,997.20
2017-11-13T11:57:53.490Z,997.25
2017-11-13T11:58:53.519Z,997.29
2017-11-13T11:59:53.550Z,997.30
2017-11-13T12:00:53.580Z,997.34
2017-11-13T12:01:53.608Z,997.37
2017-11-13T12:02:53.639Z,997.36
2017-11-13T12:03:53.667Z,997.40
2017-11-13T12:04:53.700Z,997.39
2017-11-13T12:05:53.725Z,997.38
2017-11-13T12:06:53.756Z,997.35
2017-11-13T12:07:53.785Z,997.33
2017-11-13T12:08:53.814Z,997.32
2017-11-13T12:09:53.842Z,997.36
2017-11-13T12:10:53.872Z,997.40
2017-11-13T12:11:53.904Z,997.40
2017-11-13T12:12:53.942Z,997.36
2017-11-13T12:13:53.959Z,997.38
2017-11-13T12:14:53.992Z,997.41
2017-11-13T12:15:54.019Z,997.39
2017-11-13T12:16:54.049Z,997.45
2017-11-13T12:17:54.077Z,997.44
2017-11-13T12:18:54.107Z,997.47
2017-11-13T12:19:54.136Z,997.44
2017-11-13T12:20:54.164Z,997.49
2017-11-13T12:21:54.193Z,997.45
2017-11-13T12:22:54.224Z,997.47
2017-11-13T12:23:54.253Z,997.53
2017-11-13T12:24:54.283Z,997.51
2017-11-13T12:25:54.312Z,997.50
2017-11-13T12:26:54.341Z,997.53
2017-11-13T12:27:54.370Z,997.56
2017-11-13T12:28:54.406Z,997.58